createdAt,value
2023-02-08T00:00:35.559Z,-5.96
2023-02-08T00:02:37.357Z,-6.07
2023-02-08T00:04:39.302Z,-6.22
2023-02-08T00:06:41.053Z,-6.38
2023-02-08T00:08:42.516Z,-6.49
2023-02-08T00:10:43.981Z,-6.63
2023-02-08T00:12:45.971Z,-6.71
2023-02-08T00:14:47.772Z,-6.57
2023-02-08T00:16:49.545Z,-6.61
2023-02-08T00:18:51.295Z,-6.41
2023-02-08T00:20:52.865Z,-6.46
2023-02-08T00:22:54.092Z,-6.5
2023-02-08T00:24:55.526Z,-6.56
2023-02-08T00:26:56.683Z,-6.65
2023-02-08T00:28:58.117Z,-6.58
2023-02-08T00:30:59.992Z,-6.49
2023-02-08T00:33:01.606Z,-6.46
2023-02-08T00:35:02.819Z,-6.56
2023-02-08T00:37:04.614Z,-6.57
2023-02-08T00:39:06.067Z,-6.57
2023-02-08T00:41:07.880Z,-6.58
2023-02-08T00:43:09.805Z,-6.72
2023-02-08T00:45:11.678Z,-6.94
2023-02-08T00:47:13.632Z,-7.05
2023-02-08T00:49:15.581Z,-7.03
2023-02-08T00:51:17.117Z,-7.02
2023-02-08T00:53:19.254Z,-6.96
2023-02-08T00:55:20.692Z,-6.86
2023-02-08T00:57:22.460Z,-6.86
2023-02-08T00:59:24.597Z,-6.87
2023-02-08T01:01:26.540Z,-6.92
2023-02-08T01:03:28.213Z,-6.87
2023-02-08T01:05:30.085Z,-6.99
2023-02-08T01:07:31.636Z,-7.11
2023-02-08T01:09:33.484Z,-7.08
2023-02-08T01:13:36.663Z,-7.03
2023-02-08T01:15:37.978Z,-7.03
2023-02-08T01:17:39.590Z,-6.77
2023-02-08T01:19:42.464Z,-6.69
2023-02-08T01:21:42.864Z,-6.64
2023-02-08T01:23:44.272Z,-6.71
2023-02-08T01:25:46.206Z,-6.85
2023-02-08T01:27:47.425Z,-6.81
2023-02-08T01:29:49.395Z,-6.85
2023-02-08T01:31:51.467Z,-6.84
2023-02-08T01:33:53.457Z,-6.89
2023-02-08T01:35:55.596Z,-7
2023-02-08T01:37:56.752Z,-7.13
2023-02-08T01:39:58.264Z,-7.24
2023-02-08T01:41:59.840Z,-7.25
2023-02-08T01:44:01.214Z,-7.24
2023-02-08T01:46:02.668Z,-7.27
2023-02-08T01:48:03.788Z,-7.34
2023-02-08T01:50:05.602Z,-7.29
2023-02-08T01:52:06.833Z,-7.26
2023-02-08T01:56:10.742Z,-7.39
2023-02-08T01:58:12.092Z,-7.51
2023-02-08T02:00:13.780Z,-7.47
2023-02-08T02:02:15.116Z,-7.39
2023-02-08T02:04:17.277Z,-7.47
2023-02-08T02:06:19.161Z,-7.58
2023-02-08T02:08:20.933Z,-7.51
2023-02-08T02:10:22.914Z,-7.49
2023-02-08T02:12:24.372Z,-7.55
2023-02-08T02:14:26.032Z,-7.46
2023-02-08T02:16:27.895Z,-7.35
2023-02-08T02:18:29.945Z,-7.24
2023-02-08T02:20:31.387Z,-7.18
2023-02-08T02:22:32.784Z,-7.19
2023-02-08T02:24:34.040Z,-7.19
2023-02-08T02:26:35.906Z,-7.14
2023-02-08T02:28:37.767Z,-7.08
2023-02-08T02:30:39.680Z,-7.16
2023-02-08T02:32:40.615Z,-7.16
2023-02-08T02:34:42.539Z,-7.21
2023-02-08T02:38:46.471Z,-7.27
2023-02-08T02:40:48.525Z,-7.24
2023-02-08T02:42:50.035Z,-7.28
2023-02-08T02:44:51.779Z,-7.32
2023-02-08T02:46:53.887Z,-7.44
2023-02-08T02:48:55.629Z,-7.42
2023-02-08T02:50:57.489Z,-7.41
2023-02-08T02:52:58.644Z,-7.43
2023-02-08T02:54:59.846Z,-7.49
2023-02-08T02:57:01.584Z,-7.48
2023-02-08T02:59:03.605Z,-7.62
2023-02-08T03:01:05.517Z,-7.66
2023-02-08T03:03:06.928Z,-7.72
2023-02-08T03:05:08.832Z,-7.69
2023-02-08T03:07:10.594Z,-7.57
2023-02-08T03:09:12.555Z,-7.53
2023-02-08T03:11:14.644Z,-7.66
2023-02-08T03:13:16.247Z,-7.7
2023-02-08T03:15:18.263Z,-7.79
2023-02-08T03:17:19.697Z,-7.85
2023-02-08T03:21:22.931Z,-7.99
2023-02-08T03:23:24.829Z,-8.02
2023-02-08T03:25:26.033Z,-7.78
2023-02-08T03:27:27.312Z,-7.65
2023-02-08T03:29:28.998Z,-7.65
2023-02-08T03:31:31.030Z,-7.69
2023-02-08T03:33:32.048Z,-7.78
2023-02-08T03:35:33.768Z,-7.79
2023-02-08T03:37:35.047Z,-7.8
2023-02-08T03:39:36.528Z,-7.93
2023-02-08T03:42:22.650Z,-7.86
2023-02-08T03:44:24.057Z,-7.76
2023-02-08T03:46:25.580Z,-7.85
2023-02-08T03:48:27.570Z,-7.88
2023-02-08T03:50:29.272Z,-7.91
2023-02-08T03:52:31.258Z,-7.89
2023-02-08T03:54:32.835Z,-7.85
2023-02-08T03:56:34.724Z,-7.91
2023-02-08T03:58:36.125Z,-8
2023-02-08T04:00:38.073Z,-8
2023-02-08T04:02:39.941Z,-8.09
2023-02-08T04:04:41.614Z,-8.04
2023-02-08T04:06:42.827Z,-8.01
2023-02-08T04:08:44.305Z,-7.83
2023-02-08T04:10:46.380Z,-7.92
2023-02-08T04:12:48.065Z,-8.05
2023-02-08T04:14:49.580Z,-8.12
2023-02-08T04:16:51.310Z,-8.07
2023-02-08T04:18:52.721Z,-7.93
2023-02-08T04:20:54.255Z,-7.98
2023-02-08T04:22:56.342Z,-7.95
2023-02-08T04:24:58.090Z,-7.91
2023-02-08T04:27:00.140Z,-8
2023-02-08T04:29:01.833Z,-8.09
2023-02-08T04:31:03.931Z,-8.27
2023-02-08T04:33:05.900Z,-8.35
2023-02-08T04:35:07.830Z,-8.42
2023-02-08T04:37:19.125Z,-8.53
2023-02-08T04:41:12.049Z,-8.63
2023-02-08T04:43:13.540Z,-8.58
2023-02-08T04:45:15.540Z,-8.54
2023-02-08T04:47:16.999Z,-8.51
2023-02-08T04:49:19.148Z,-8.5
2023-02-08T04:51:20.672Z,-8.34
2023-02-08T04:53:22.602Z,-8.24
2023-02-08T04:55:24.620Z,-8.27
2023-02-08T04:57:26.446Z,-8.39
2023-02-08T04:59:27.802Z,-8.46
2023-02-08T05:01:29.419Z,-8.5
2023-02-08T05:03:30.613Z,-8.52
2023-02-08T05:05:32.321Z,-8.63
2023-02-08T05:07:33.655Z,-8.71
2023-02-08T05:09:35.657Z,-8.73
2023-02-08T05:11:37.566Z,-8.73
2023-02-08T05:13:39.247Z,-8.62
2023-02-08T05:15:40.668Z,-8.48
2023-02-08T05:17:42.225Z,-8.51
2023-02-08T05:19:44.404Z,-8.64
2023-02-08T05:23:47.485Z,-8.55
2023-02-08T05:25:49.177Z,-8.5
2023-02-08T05:27:50.734Z,-8.48
2023-02-08T05:29:52.132Z,-8.41
2023-02-08T05:31:54.060Z,-8.34
2023-02-08T05:33:55.562Z,-8.41
2023-02-08T05:35:56.976Z,-8.54
2023-02-08T05:37:58.724Z,-8.55
2023-02-08T05:40:00.766Z,-8.49
2023-02-08T05:42:02.399Z,-8.52
2023-02-08T05:44:03.979Z,-8.6
2023-02-08T05:46:05.462Z,-8.59
2023-02-08T05:48:06.711Z,-8.55
2023-02-08T05:50:08.364Z,-8.6
2023-02-08T05:52:09.682Z,-8.67
2023-02-08T05:54:11.872Z,-8.75
2023-02-08T05:56:13.229Z,-8.65
2023-02-08T05:58:14.620Z,-8.62
2023-02-08T06:00:16.385Z,-8.65
2023-02-08T06:02:18.078Z,-8.64
2023-02-08T06:04:19.704Z,-8.63
2023-02-08T06:06:21.628Z,-8.72
2023-02-08T06:08:23.381Z,-8.79
2023-02-08T06:10:25.412Z,-8.81
2023-02-08T06:12:27.311Z,-8.77
2023-02-08T06:14:29.322Z,-8.7
2023-02-08T06:16:30.925Z,-8.47
2023-02-08T06:18:32.098Z,-8.51
2023-02-08T06:20:33.472Z,-8.62
2023-02-08T06:22:35.658Z,-8.73
2023-02-08T06:24:37.066Z,-8.71
2023-02-08T06:26:38.943Z,-8.75
2023-02-08T06:28:41.017Z,-8.79
2023-02-08T06:30:43.224Z,-8.75
2023-02-08T06:32:44.445Z,-8.77
2023-02-08T06:34:46.560Z,-8.8
2023-02-08T06:36:48.764Z,-8.83
2023-02-08T06:38:51.312Z,-8.89
2023-02-08T06:40:51.773Z,-8.95
2023-02-08T06:42:53.134Z,-9.03
2023-02-08T06:44:55.585Z,-9.05
2023-02-08T06:48:57.945Z,-8.99
2023-02-08T06:50:59.254Z,-9.01
2023-02-08T06:53:00.591Z,-8.92
2023-02-08T06:55:02.650Z,-8.95
2023-02-08T06:57:04.615Z,-8.99
2023-02-08T06:59:06.382Z,-8.97
2023-02-08T07:01:08.510Z,-9.04
2023-02-08T07:03:09.764Z,-9.07
2023-02-08T07:05:11.199Z,-9.04
2023-02-08T07:07:13.102Z,-9.02
2023-02-08T07:09:14.633Z,-8.95
2023-02-08T07:11:15.902Z,-8.96
2023-02-08T07:13:17.971Z,-8.97
2023-02-08T07:15:19.786Z,-9.03
2023-02-08T07:17:21.720Z,-8.99
2023-02-08T07:19:23.328Z,-8.86
2023-02-08T07:21:25.224Z,-8.82
2023-02-08T07:23:26.837Z,-8.83
2023-02-08T07:25:28.901Z,-8.73
2023-02-08T07:27:30.114Z,-8.68
2023-02-08T07:31:32.790Z,-8.65
2023-02-08T07:33:34.706Z,-8.66
2023-02-08T07:35:36.575Z,-8.68
2023-02-08T07:37:38.489Z,-8.52
2023-02-08T07:39:40.305Z,-8.12
2023-02-08T07:41:42.328Z,-7.76
2023-02-08T07:43:43.533Z,-7.24
2023-02-08T07:45:45.239Z,-6.66
2023-02-08T07:47:46.489Z,-6.22
2023-02-08T07:49:47.742Z,-5.66
2023-02-08T07:51:49.304Z,-5.92
2023-02-08T07:53:50.731Z,-5.4
2023-02-08T07:55:52.627Z,-5.85
2023-02-08T07:57:54.557Z,-5.65
2023-02-08T07:59:55.823Z,-5.19
2023-02-08T08:01:57.048Z,-4.75
2023-02-08T08:03:58.611Z,-4.49
2023-02-08T08:05:59.815Z,-4.46
2023-02-08T08:08:01.362Z,-4.76
2023-02-08T08:10:02.914Z,-4.33
2023-02-08T08:12:03.968Z,-4.29
2023-02-08T08:14:06.021Z,-4.32
2023-02-08T08:16:07.025Z,-4.09
2023-02-08T08:18:08.289Z,-4.17
2023-02-08T08:20:09.554Z,-4.61
2023-02-08T08:22:10.625Z,-4.29
2023-02-08T08:24:12.370Z,-4.68
2023-02-08T08:26:13.383Z,-4.44
2023-02-08T08:28:15.106Z,-4.02
2023-02-08T08:30:16.280Z,-4.12
2023-02-08T08:32:17.910Z,-4
2023-02-08T08:34:19.594Z,-3.91
2023-02-08T08:36:20.744Z,-4.57
2023-02-08T08:38:21.687Z,-4.11
2023-02-08T08:40:25.095Z,-4.81
2023-02-08T08:42:24.439Z,-4.1
2023-02-08T08:44:25.592Z,-4.17
2023-02-08T08:46:26.738Z,-4.56
2023-02-08T08:48:28.405Z,-3.75
2023-02-08T08:50:30.124Z,-3.73
2023-02-08T08:52:31.713Z,-3.59
2023-02-08T08:54:33.675Z,-3.7
2023-02-08T08:56:34.758Z,-3.3
2023-02-08T08:58:36.588Z,-3.36
2023-02-08T09:00:38.178Z,-2.88
2023-02-08T09:02:39.124Z,-2.43
2023-02-08T09:04:40.460Z,-3.13
2023-02-08T09:06:41.555Z,-2.47
2023-02-08T09:08:43.468Z,-2.02
2023-02-08T09:10:45.400Z,-2.2
2023-02-08T09:12:47.338Z,-1.74
2023-02-08T09:14:48.891Z,-1.56
2023-02-08T09:16:50.217Z,-1.55
2023-02-08T09:18:51.391Z,-1.28
2023-02-08T09:20:53.068Z,-1.3
2023-02-08T09:22:54.281Z,-1.17
2023-02-08T09:24:55.682Z,-0.91
2023-02-08T09:26:57.294Z,-0.72
2023-02-08T09:28:59.273Z,-0.45
2023-02-08T09:31:01.077Z,-0.74
2023-02-08T09:33:02.871Z,-0.89
2023-02-08T09:35:03.941Z,-0.78
2023-02-08T09:37:04.974Z,-1.13
2023-02-08T09:39:06.225Z,-0.42
2023-02-08T09:41:07.466Z,-0.51
2023-02-08T09:43:08.794Z,-0.34
2023-02-08T09:45:09.879Z,-0.05
2023-02-08T09:47:11.632Z,-0.17
2023-02-08T09:49:12.703Z,0.06
2023-02-08T09:51:14.112Z,0.05
2023-02-08T09:53:15.698Z,-0.39
2023-02-08T09:55:17.548Z,-0.04
2023-02-08T09:57:18.773Z,0.04
2023-02-08T09:59:20.621Z,-0.25
2023-02-08T10:01:22.588Z,-0.17
2023-02-08T10:03:24.140Z,0.04
2023-02-08T10:05:25.163Z,-0.16
2023-02-08T10:07:26.560Z,0.02
2023-02-08T10:09:28.417Z,0.09
2023-02-08T10:11:29.962Z,0.31
2023-02-08T10:13:40.968Z,0.1
2023-02-08T10:15:33.418Z,0.31
2023-02-08T10:17:34.954Z,0.5
2023-02-08T10:19:36.133Z,0.38
2023-02-08T10:21:37.638Z,0.8
2023-02-08T10:23:39.246Z,0.44
2023-02-08T10:25:41.022Z,0.55
2023-02-08T10:26:24.853Z,0.76
2023-02-08T10:28:26.527Z,1.01
2023-02-08T10:32:28.928Z,0.72
2023-02-08T10:34:29.983Z,0.65
2023-02-08T10:36:31.681Z,0.78
2023-02-08T10:38:44.448Z,0.53
2023-02-08T10:40:34.788Z,0.85
2023-02-08T10:42:36.402Z,0.65
2023-02-08T10:44:37.588Z,1.3
2023-02-08T10:46:38.740Z,1.17
2023-02-08T10:48:40.395Z,1.1
2023-02-08T10:50:41.905Z,1.19
2023-02-08T10:52:43.088Z,1.64
2023-02-08T10:54:44.452Z,1.34
2023-02-08T10:56:46.610Z,1.38
2023-02-08T10:58:48.279Z,1.31
2023-02-08T11:00:49.677Z,1.33
2023-02-08T11:02:51.219Z,1.28
2023-02-08T11:04:52.560Z,1.45
2023-02-08T11:06:54.041Z,1.43
2023-02-08T11:08:55.854Z,1.34
2023-02-08T11:10:57.243Z,1.39
2023-02-08T11:15:08.308Z,1.58
2023-02-08T11:17:02.168Z,1.46
2023-02-08T11:19:03.244Z,1.26
2023-02-08T11:21:04.470Z,1.8
2023-02-08T11:23:06.373Z,1.47
2023-02-08T11:25:07.347Z,1.69
2023-02-08T11:27:08.520Z,1.85
2023-02-08T11:29:09.621Z,2
2023-02-08T11:31:12.620Z,1.89
2023-02-08T11:33:12.222Z,1.68
2023-02-08T11:35:13.406Z,1.66
2023-02-08T11:37:15.249Z,1.81
2023-02-08T11:39:16.923Z,1.86
2023-02-08T11:41:18.325Z,2.42
2023-02-08T11:43:19.361Z,2.51
2023-02-08T11:45:21.134Z,1.85
2023-02-08T11:47:22.966Z,2.26
2023-02-08T11:49:24.727Z,1.95
2023-02-08T11:51:26.039Z,2.17
2023-02-08T11:53:27.614Z,2.42
2023-02-08T11:55:29.009Z,2.65
2023-02-08T11:57:30.937Z,2.28
2023-02-08T11:59:32.809Z,2.33
2023-02-08T12:01:34.725Z,2.7
2023-02-08T12:03:36.261Z,2.82
2023-02-08T12:05:37.714Z,2.58
2023-02-08T12:07:39.229Z,2.88
2023-02-08T12:09:40.365Z,2.79
2023-02-08T12:11:41.846Z,2.72
2023-02-08T12:13:43.725Z,2.7
2023-02-08T12:15:57.691Z,3.19
2023-02-08T12:17:46.643Z,2.76
2023-02-08T12:19:48.533Z,2.56
2023-02-08T12:21:49.536Z,2.33
2023-02-08T12:23:51.019Z,2.83
2023-02-08T12:25:52.320Z,2.93
2023-02-08T12:27:53.527Z,2.94
2023-02-08T12:29:54.564Z,3.03
2023-02-08T12:31:56.128Z,2.96
2023-02-08T12:33:57.521Z,3.12
2023-02-08T12:36:04.441Z,3
2023-02-08T12:38:01.378Z,2.96
2023-02-08T12:40:02.903Z,2.79
2023-02-08T12:42:03.900Z,3.06
2023-02-08T12:44:05.660Z,3.29
2023-02-08T12:46:07.091Z,3.23
2023-02-08T12:48:08.495Z,3.02
2023-02-08T12:50:10.156Z,2.87
2023-02-08T12:52:11.955Z,3.07
2023-02-08T12:54:13.396Z,3.13
2023-02-08T12:56:15.342Z,3.09
2023-02-08T12:58:17.003Z,3.06
2023-02-08T13:00:18.908Z,3.13
2023-02-08T13:02:20.452Z,3.31
2023-02-08T13:04:21.524Z,3.13
2023-02-08T13:06:23.053Z,2.89
2023-02-08T13:08:24.392Z,2.97
2023-02-08T13:10:25.662Z,3.08
2023-02-08T13:12:27.549Z,3.22
2023-02-08T13:14:28.836Z,2.99
2023-02-08T13:16:30.093Z,3.16
2023-02-08T13:18:30.987Z,3.33
2023-02-08T13:20:32.014Z,3.43
2023-02-08T13:22:33.851Z,3.74
2023-02-08T13:24:35.411Z,3.18
2023-02-08T13:26:37.212Z,3.19
2023-02-08T13:28:38.763Z,3.29
2023-02-08T13:30:40.373Z,3.27
2023-02-08T13:32:44.014Z,3.07
2023-02-08T13:34:43.113Z,3.11
2023-02-08T13:36:44.638Z,3.25
2023-02-08T13:38:46.292Z,3.43
2023-02-08T13:40:47.575Z,3.62
2023-02-08T13:42:49.076Z,3.43
2023-02-08T13:44:51.003Z,3.12
2023-02-08T13:46:52.089Z,2.87
2023-02-08T13:48:53.118Z,3.32
2023-02-08T13:50:54.975Z,3.13
2023-02-08T13:52:56.220Z,3.09
2023-02-08T13:54:57.342Z,3.12
2023-02-08T13:56:58.543Z,3.15
2023-02-08T13:58:59.828Z,3.33
2023-02-08T14:01:01.522Z,3.14
2023-02-08T14:03:03.343Z,3.38
2023-02-08T14:05:04.889Z,3.43
2023-02-08T14:07:06.301Z,3.43
2023-02-08T14:09:08.311Z,3.92
2023-02-08T14:11:09.328Z,3.43
2023-02-08T14:13:10.268Z,3.44
2023-02-08T14:15:11.981Z,3.41
2023-02-08T14:17:13.603Z,3.57
2023-02-08T14:19:14.725Z,3.52
2023-02-08T14:21:16.569Z,3.73
2023-02-08T14:23:18.426Z,3.65
2023-02-08T14:25:20.033Z,3.55
2023-02-08T14:27:21.982Z,3.81
2023-02-08T14:29:23.852Z,3.81
2023-02-08T14:31:24.943Z,3.68
2023-02-08T14:33:26.059Z,3.66
2023-02-08T14:35:27.086Z,3.53
2023-02-08T14:37:28.843Z,3.71
2023-02-08T14:39:30.493Z,3.72
2023-02-08T14:41:31.781Z,3.61
2023-02-08T14:43:33.047Z,3.74
2023-02-08T14:45:34.763Z,3.7
2023-02-08T14:47:36.704Z,3.71
2023-02-08T14:49:38.351Z,3.66
2023-02-08T14:51:39.491Z,3.84
2023-02-08T14:53:41.273Z,3.66
2023-02-08T14:55:42.645Z,3.77
2023-02-08T14:57:43.788Z,3.66
2023-02-08T14:59:45.430Z,3.74
2023-02-08T15:03:48.140Z,3.71
2023-02-08T15:05:49.605Z,3.66
2023-02-08T15:07:51.508Z,3.59
2023-02-08T15:09:52.945Z,3.67
2023-02-08T15:11:53.920Z,3.63
2023-02-08T15:13:55.197Z,3.73
2023-02-08T15:15:56.708Z,3.61
2023-02-08T15:17:57.832Z,3.45
2023-02-08T15:19:59.428Z,3.43
2023-02-08T15:22:00.591Z,3.46
2023-02-08T15:24:04.335Z,3.5
2023-02-08T15:26:03.861Z,3.52
2023-02-08T15:28:05.776Z,3.43
2023-02-08T15:30:06.812Z,3.4
2023-02-08T15:32:08.756Z,3.33
2023-02-08T15:34:10.631Z,3.34
2023-02-08T15:36:12.546Z,3.27
2023-02-08T15:38:14.041Z,3.29
2023-02-08T15:40:17.535Z,3.27
2023-02-08T15:42:16.846Z,3.41
2023-02-08T15:44:17.938Z,3.26
2023-02-08T15:46:19.099Z,3.26
2023-02-08T15:48:20.151Z,3.18
2023-02-08T15:50:21.623Z,2.97
2023-02-08T15:52:22.869Z,2.82
2023-02-08T15:54:24.690Z,2.75
2023-02-08T15:56:35.651Z,2.58
2023-02-08T15:58:27.636Z,2.4
2023-02-08T16:00:28.771Z,2.18
2023-02-08T16:02:30.317Z,2.08
2023-02-08T16:04:32.100Z,2.06
2023-02-08T16:06:33.408Z,1.86
2023-02-08T16:08:34.404Z,1.8
2023-02-08T16:10:36.243Z,1.61
2023-02-08T16:12:37.765Z,1.76
2023-02-08T16:14:51.787Z,1.55
2023-02-08T16:16:41.780Z,1.28
2023-02-08T16:18:43.142Z,1.1
2023-02-08T16:20:44.847Z,1.31
2023-02-08T16:22:45.790Z,1.4
2023-02-08T16:24:47.119Z,1.36
2023-02-08T16:26:48.318Z,1.23
2023-02-08T16:28:49.723Z,1.04
2023-02-08T16:30:50.809Z,0.9
2023-02-08T16:32:52.677Z,0.77
2023-02-08T16:34:54.002Z,0.64
2023-02-08T16:36:55.419Z,0.52
2023-02-08T16:38:57.312Z,0.38
2023-02-08T16:40:58.451Z,0.25
2023-02-08T16:43:00.324Z,0.08
2023-02-08T16:45:01.664Z,0.02
2023-02-08T16:47:03.272Z,-0.04
2023-02-08T16:49:04.350Z,-0.04
2023-02-08T16:51:06.404Z,-0.03
2023-02-08T16:53:08.286Z,-0.1
2023-02-08T16:55:09.506Z,-0.2
2023-02-08T16:57:10.632Z,0
2023-02-08T16:59:12.206Z,0
2023-02-08T17:01:13.458Z,0
2023-02-08T17:03:15.226Z,-0.07
2023-02-08T17:05:16.954Z,-0.22
2023-02-08T17:07:18.719Z,-0.45
2023-02-08T17:09:19.925Z,-0.66
2023-02-08T17:11:21.340Z,-0.7
2023-02-08T17:12:16.840Z,-0.65
2023-02-08T17:14:06.821Z,-0.58
2023-02-08T17:16:08.374Z,-0.53
2023-02-08T17:18:09.674Z,-0.61
2023-02-08T17:20:12.025Z,-0.7
2023-02-08T17:22:13.051Z,-1.15
2023-02-08T17:24:14.692Z,-1.29
2023-02-08T17:26:16.430Z,-1.2
2023-02-08T17:28:17.680Z,-1.17
2023-02-08T17:30:18.705Z,-1.24
2023-02-08T17:32:20.483Z,-1.22
2023-02-08T17:34:22.015Z,-1.23
2023-02-08T17:36:23.616Z,-1.3
2023-02-08T17:38:24.820Z,-1.41
2023-02-08T17:40:25.948Z,-1.34
2023-02-08T17:42:27.782Z,-1.26
2023-02-08T17:44:29.174Z,-1.17
2023-02-08T17:46:30.916Z,-0.84
2023-02-08T17:48:32.725Z,-0.54
2023-02-08T17:50:34.527Z,-0.76
2023-02-08T17:52:36.244Z,-0.87
2023-02-08T17:54:37.626Z,-1.13
2023-02-08T17:56:39.390Z,-1.48
2023-02-08T17:58:40.980Z,-1.5
2023-02-08T18:00:42.238Z,-1.51
2023-02-08T18:04:46.012Z,-1.43
2023-02-08T18:06:47.689Z,-1.42
2023-02-08T18:08:49.698Z,-1.55
2023-02-08T18:10:51.112Z,-1.63
2023-02-08T18:12:52.887Z,-1.56
2023-02-08T18:14:54.017Z,-1.66
2023-02-08T18:16:55.184Z,-1.68
2023-02-08T18:18:57.105Z,-1.67
2023-02-08T18:20:58.915Z,-1.72
2023-02-08T18:23:00.400Z,-1.68
2023-02-08T18:25:01.894Z,-1.69
2023-02-08T18:27:03.586Z,-1.68
2023-02-08T18:29:04.928Z,-1.73
2023-02-08T18:31:06.640Z,-1.87
2023-02-08T18:33:07.925Z,-1.64
2023-02-08T18:35:09.795Z,-1.76
2023-02-08T18:37:11.027Z,-1.86
2023-02-08T18:39:12.310Z,-2.06
2023-02-08T18:41:13.571Z,-2.22
2023-02-08T18:43:15.204Z,-2.32
2023-02-08T18:45:16.841Z,-2.42
2023-02-08T18:47:18.887Z,-2.46
2023-02-08T18:49:19.989Z,-2.64
2023-02-08T18:51:21.768Z,-2.39
2023-02-08T18:53:23.279Z,-2.06
2023-02-08T18:55:33.440Z,-2.07
2023-02-08T18:57:25.891Z,-2
2023-02-08T18:59:27.582Z,-1.94
2023-02-08T19:01:29.590Z,-2.13
2023-02-08T19:03:31.129Z,-1.96
2023-02-08T19:05:32.841Z,-1.76
2023-02-08T19:07:34.934Z,-1.76
2023-02-08T19:09:36.056Z,-1.86
2023-02-08T19:11:38.138Z,-2.1
2023-02-08T19:13:39.523Z,-2.22
2023-02-08T19:15:40.686Z,-2.13
2023-02-08T19:17:41.868Z,-2.6
2023-02-08T19:19:43.638Z,-2.64
2023-02-08T19:21:44.724Z,-2.63
2023-02-08T19:23:46.795Z,-2.5
2023-02-08T19:25:48.360Z,-2.49
2023-02-08T19:27:50.479Z,-2.57
2023-02-08T19:29:52.525Z,-2.37
2023-02-08T19:31:55.933Z,-2.31
2023-02-08T19:33:56.402Z,-2.27
2023-02-08T19:35:57.991Z,-2.22
2023-02-08T19:37:59.934Z,-2.24
2023-02-08T19:40:01.409Z,-2.21
2023-02-08T19:42:02.632Z,-2.26
2023-02-08T19:44:03.779Z,-2.3
2023-02-08T19:46:05.432Z,-2.41
2023-02-08T19:48:06.734Z,-2.44
2023-02-08T19:50:07.822Z,-2.6
2023-02-08T19:52:09.492Z,-2.83
2023-02-08T19:54:11.171Z,-2.96
2023-02-08T19:56:12.435Z,-3.04
2023-02-08T19:58:14.306Z,-3.24
2023-02-08T20:00:23.280Z,-3.46
2023-02-08T20:02:17.251Z,-3.43
2023-02-08T20:04:18.955Z,-3.41
2023-02-08T20:06:20.279Z,-3.54
2023-02-08T20:08:22.148Z,-3.42
2023-02-08T20:10:24.251Z,-3.44
2023-02-08T20:12:26.276Z,-3.53
2023-02-08T20:14:28.050Z,-3.69
2023-02-08T20:16:31.631Z,-3.83
2023-02-08T20:18:31.256Z,-3.72
2023-02-08T20:20:32.437Z,-3.59
2023-02-08T20:22:33.823Z,-3.59
2023-02-08T20:24:35.094Z,-3.71
2023-02-08T20:26:37.079Z,-3.81
2023-02-08T20:28:38.546Z,-3.85
2023-02-08T20:30:40.237Z,-3.73
2023-02-08T20:32:41.501Z,-3.53
2023-02-08T20:34:50.585Z,-3.66
2023-02-08T20:36:54.658Z,-3.74
2023-02-08T20:38:46.199Z,-3.75
2023-02-08T20:40:47.347Z,-3.68
2023-02-08T20:42:49.262Z,-3.65
2023-02-08T20:44:50.871Z,-3.7
2023-02-08T20:46:52.157Z,-3.74
2023-02-08T20:48:53.295Z,-3.75
2023-02-08T20:50:54.880Z,-3.69
2023-02-08T20:52:56.806Z,-3.71
2023-02-08T20:54:58.936Z,-3.75
2023-02-08T20:57:00.110Z,-3.67
2023-02-08T20:59:01.924Z,-3.79
2023-02-08T21:01:03.727Z,-3.79
2023-02-08T21:03:05.790Z,-3.77
2023-02-08T21:05:07.331Z,-3.79
2023-02-08T21:07:08.719Z,-3.89
2023-02-08T21:09:10.700Z,-3.81
2023-02-08T21:11:12.477Z,-3.71
2023-02-08T21:13:14.493Z,-3.66
2023-02-08T21:15:16.667Z,-3.62
2023-02-08T21:17:18.061Z,-3.64
2023-02-08T21:19:19.708Z,-3.54
2023-02-08T21:21:21.073Z,-3.67
2023-02-08T21:23:22.765Z,-3.65
2023-02-08T21:25:24.499Z,-3.61
2023-02-08T21:27:26.150Z,-3.46
2023-02-08T21:29:27.418Z,-3.41
2023-02-08T21:31:29.683Z,-3.45
2023-02-08T21:33:30.866Z,-3.53
2023-02-08T21:35:32.169Z,-3.55
2023-02-08T21:37:34.174Z,-3.51
2023-02-08T21:39:35.828Z,-3.69
2023-02-08T21:41:36.984Z,-3.85
2023-02-08T21:43:38.683Z,-3.94
2023-02-08T21:45:39.743Z,-3.98
2023-02-08T21:47:40.953Z,-3.99
2023-02-08T21:49:42.442Z,-4
2023-02-08T21:51:44.247Z,-4.04
2023-02-08T21:53:46.048Z,-4.26
2023-02-08T21:55:47.745Z,-4.49
2023-02-08T21:57:49.699Z,-4.69
2023-02-08T21:59:50.855Z,-4.91
2023-02-08T22:01:52.830Z,-4.99
2023-02-08T22:03:54.844Z,-5.02
2023-02-08T22:05:56.696Z,-5.14
2023-02-08T22:07:58.636Z,-5.11
2023-02-08T22:10:00.228Z,-5.22
2023-02-08T22:12:01.395Z,-5.3
2023-02-08T22:14:03.469Z,-5.27
2023-02-08T22:16:05.495Z,-5.26
2023-02-08T22:18:06.968Z,-5.34
2023-02-08T22:20:08.756Z,-5.23
2023-02-08T22:22:10.154Z,-5.26
2023-02-08T22:24:12.180Z,-5.35
2023-02-08T22:26:13.345Z,-5.34
2023-02-08T22:28:15.394Z,-5.3
2023-02-08T22:30:16.958Z,-5.33
2023-02-08T22:32:18.417Z,-5.48
2023-02-08T22:34:19.574Z,-5.54
2023-02-08T22:36:21.615Z,-5.54
2023-02-08T22:38:22.895Z,-5.54
2023-02-08T22:40:24.799Z,-5.55
2023-02-08T22:42:26.506Z,-5.57
2023-02-08T22:44:27.704Z,-5.58
2023-02-08T22:46:29.288Z,-5.67
2023-02-08T22:48:30.609Z,-5.71
2023-02-08T22:50:32.121Z,-5.78
2023-02-08T22:52:34.019Z,-5.78
2023-02-08T22:54:35.858Z,-5.6
2023-02-08T22:56:37.531Z,-5.65
2023-02-08T22:58:39.350Z,-5.56
2023-02-08T23:00:40.607Z,-5.66
2023-02-08T23:02:42.558Z,-5.66
2023-02-08T23:04:44.009Z,-5.48
2023-02-08T23:06:45.756Z,-5.46
2023-02-08T23:08:47.441Z,-5.63
2023-02-08T23:10:48.861Z,-5.54
2023-02-08T23:12:50.014Z,-5.59
2023-02-08T23:14:51.475Z,-5.53
2023-02-08T23:16:53.601Z,-5.5
2023-02-08T23:18:55.657Z,-5.48
2023-02-08T23:20:57.784Z,-5.5
2023-02-08T23:22:59.952Z,-5.59
2023-02-08T23:25:01.305Z,-5.73
2023-02-08T23:27:03.125Z,-5.73
2023-02-08T23:29:04.639Z,-5.87
2023-02-08T23:31:06.439Z,-5.89
2023-02-08T23:33:08.482Z,-5.77
2023-02-08T23:35:09.891Z,-5.8
2023-02-08T23:37:11.531Z,-5.64
2023-02-08T23:39:13.404Z,-5.57
2023-02-08T23:41:14.682Z,-5.74
2023-02-08T23:43:16.405Z,-5.61
2023-02-08T23:45:18.180Z,-5.59
2023-02-08T23:47:20.199Z,-5.74
2023-02-08T23:49:21.845Z,-5.84
2023-02-08T23:51:23.430Z,-5.85
2023-02-08T23:53:24.629Z,-6.07
2023-02-08T23:55:26.357Z,-6.18
2023-02-08T23:57:28.155Z,-6.2
